sensor_id;sensor_type;location;lat;lon;timestamp;pressure;altitude;pressure_sealevel;temperature;humidity
22261;BME280;11299;43.202;27.920;2023-06-10T00:01:53;114455.31;;;18.00;100.00
22261;BME280;11299;43.202;27.920;2023-06-10T00:04:25;116616.34;;;18.01;100.00
22261;BME280;11299;43.202;27.920;2023-06-10T00:06:51;118410.00;;;17.98;100.00
22261;BME280;11299;43.202;27.920;2023-06-10T00:09:16;119622.59;;;16.82;100.00
22261;BME280;11299;43.202;27.920;2023-06-10T00:11:43;121247.94;;;17.76;100.00
22261;BME280;11299;43.202;27.920;2023-06-10T00:14:09;121277.69;;;16.11;100.00
22261;BME280;11299;43.202;27.920;2023-06-10T00:16:35;121819.19;;;17.02;100.00
22261;BME280;11299;43.202;27.920;2023-06-10T00:19:02;121603.09;;;17.74;100.00
22261;BME280;11299;43.202;27.920;2023-06-10T00:21:30;121655.31;;;18.00;100.00
22261;BME280;11299;43.202;27.920;2023-06-10T00:23:56;116973.31;;;18.00;100.00
22261;BME280;11299;43.202;27.920;2023-06-10T00:26:22;112686.09;;;16.21;100.00
22261;BME280;11299;43.202;27.920;2023-06-10T00:28:49;109781.09;;;17.98;100.00
22261;BME280;11299;43.202;27.920;2023-06-10T00:31:14;107950.44;;;17.78;100.00
22261;BME280;11299;43.202;27.920;2023-06-10T00:33:40;103704.56;;;16.01;100.00
22261;BME280;11299;43.202;27.920;2023-06-10T00:36:05;97585.16;;;17.93;100.00
22261;BME280;11299;43.202;27.920;2023-06-10T00:38:31;93313.31;;;18.06;100.00
22261;BME280;11299;43.202;27.920;2023-06-10T00:40:57;93090.66;;;16.60;100.00
22261;BME280;11299;43.202;27.920;2023-06-10T00:43:22;90083.66;;;17.96;100.00
22261;BME280;11299;43.202;27.920;2023-06-10T00:45:48;89280.31;;;17.35;100.00
22261;BME280;11299;43.202;27.920;2023-06-10T00:48:14;86901.81;;;18.17;100.00
22261;BME280;11299;43.202;27.920;2023-06-10T00:50:39;81458.88;;;17.47;100.00
22261;BME280;11299;43.202;27.920;2023-06-10T00:53:06;78336.47;;;18.08;100.00
22261;BME280;11299;43.202;27.920;2023-06-10T00:55:32;79019.59;;;17.86;100.00
22261;BME280;11299;43.202;27.920;2023-06-10T00:57:58;82592.97;;;17.96;100.00
22261;BME280;11299;43.202;27.920;2023-06-10T01:00:25;84362.94;;;17.87;100.00
22261;BME280;11299;43.202;27.920;2023-06-10T01:02:51;85747.78;;;17.58;100.00
22261;BME280;11299;43.202;27.920;2023-06-10T01:05:17;87559.88;;;17.78;100.00
22261;BME280;11299;43.202;27.920;2023-06-10T01:08:40;90306.28;;;17.06;100.00
22261;BME280;11299;43.202;27.920;2023-06-10T01:10:50;90323.44;;;17.17;100.00
22261;BME280;11299;43.202;27.920;2023-06-10T01:13:17;91814.03;;;17.59;100.00
22261;BME280;11299;43.202;27.920;2023-06-10T01:15:43;93237.78;;;17.56;100.00
22261;BME280;11299;43.202;27.920;2023-06-10T01:18:10;95034.25;;;17.63;100.00
22261;BME280;11299;43.202;27.920;2023-06-10T01:20:40;96442.53;;;17.49;100.00
22261;BME280;11299;43.202;27.920;2023-06-10T01:23:07;96696.81;;;16.84;100.00
22261;BME280;11299;43.202;27.920;2023-06-10T01:25:36;96001.72;;;16.97;100.00
22261;BME280;11299;43.202;27.920;2023-06-10T01:30:50;93592.66;;;17.55;100.00
22261;BME280;11299;43.202;27.920;2023-06-10T01:33:27;92524.31;;;17.57;100.00
22261;BME280;11299;43.202;27.920;2023-06-10T01:35:53;92147.44;;;17.44;100.00
22261;BME280;11299;43.202;27.920;2023-06-10T01:38:21;87901.31;;;17.68;100.00
22261;BME280;11299;43.202;27.920;2023-06-10T01:40:49;85373.03;;;17.45;100.00
22261;BME280;11299;43.202;27.920;2023-06-10T01:43:15;86081.38;;;17.42;100.00
22261;BME280;11299;43.202;27.920;2023-06-10T01:45:40;84325.31;;;17.60;100.00
22261;BME280;11299;43.202;27.920;2023-06-10T01:48:06;86440.59;;;17.44;100.00
22261;BME280;11299;43.202;27.920;2023-06-10T01:50:32;88604.47;;;17.61;100.00
22261;BME280;11299;43.202;27.920;2023-06-10T01:52:59;89932.63;;;16.94;100.00
22261;BME280;11299;43.202;27.920;2023-06-10T01:55:25;94303.22;;;17.52;100.00
22261;BME280;11299;43.202;27.920;2023-06-10T01:57:50;97855.59;;;17.39;100.00
22261;BME280;11299;43.202;27.920;2023-06-10T02:00:17;102131.72;;;17.29;100.00
22261;BME280;11299;43.202;27.920;2023-06-10T02:02:42;105384.03;;;17.46;100.00
22261;BME280;11299;43.202;27.920;2023-06-10T02:05:08;107183.34;;;17.50;100.00
22261;BME280;11299;43.202;27.920;2023-06-10T02:07:33;107782.84;;;16.83;100.00
22261;BME280;11299;43.202;27.920;2023-06-10T02:09:59;108516.44;;;16.93;100.00
22261;BME280;11299;43.202;27.920;2023-06-10T02:12:24;110264.03;;;16.68;100.00
22261;BME280;11299;43.202;27.920;2023-06-10T02:14:50;111817.13;;;17.33;100.00
22261;BME280;11299;43.202;27.920;2023-06-10T02:17:15;113457.34;;;16.50;100.00
22261;BME280;11299;43.202;27.920;2023-06-10T02:19:41;115275.75;;;16.63;100.00
22261;BME280;11299;43.202;27.920;2023-06-10T02:22:20;117144.19;;;17.02;100.00
22261;BME280;11299;43.202;27.920;2023-06-10T02:24:46;117148.09;;;17.04;100.00
22261;BME280;11299;43.202;27.920;2023-06-10T02:27:12;115709.25;;;17.03;100.00
22261;BME280;11299;43.202;27.920;2023-06-10T02:29:38;113518.34;;;16.83;100.00
22261;BME280;11299;43.202;27.920;2023-06-10T02:32:03;110209.31;;;16.38;100.00
22261;BME280;11299;43.202;27.920;2023-06-10T02:34:29;109217.00;;;16.84;100.00
22261;BME280;11299;43.202;27.920;2023-06-10T02:36:55;108150.03;;;16.88;100.00
22261;BME280;11299;43.202;27.920;2023-06-10T02:39:21;107071.75;;;16.86;100.00
22261;BME280;11299;43.202;27.920;2023-06-10T02:41:47;105916.75;;;16.40;100.00
22261;BME280;11299;43.202;27.920;2023-06-10T02:44:12;104219.56;;;16.93;100.00
22261;BME280;11299;43.202;27.920;2023-06-10T02:46:37;102332.16;;;16.35;100.00
22261;BME280;11299;43.202;27.920;2023-06-10T02:49:03;100633.81;;;16.88;100.00
22261;BME280;11299;43.202;27.920;2023-06-10T02:51:28;100184.28;;;16.33;100.00
22261;BME280;11299;43.202;27.920;2023-06-10T02:53:54;98114.97;;;16.78;100.00
22261;BME280;11299;43.202;27.920;2023-06-10T02:56:19;95638.31;;;16.92;100.00
22261;BME280;11299;43.202;27.920;2023-06-10T02:58:45;94579.88;;;17.01;100.00
22261;BME280;11299;43.202;27.920;2023-06-10T03:01:12;92074.34;;;16.96;100.00
22261;BME280;11299;43.202;27.920;2023-06-10T03:03:37;92784.72;;;16.93;100.00
22261;BME280;11299;43.202;27.920;2023-06-10T03:06:06;92052.25;;;16.81;100.00
22261;BME280;11299;43.202;27.920;2023-06-10T03:08:31;91014.97;;;17.03;100.00
22261;BME280;11299;43.202;27.920;2023-06-10T03:10:57;92104.78;;;17.16;100.00
22261;BME280;11299;43.202;27.920;2023-06-10T03:13:23;94238.50;;;17.11;100.00
22261;BME280;11299;43.202;27.920;2023-06-10T03:15:49;95931.13;;;16.52;100.00
22261;BME280;11299;43.202;27.920;2023-06-10T03:18:15;99228.59;;;17.04;100.00
22261;BME280;11299;43.202;27.920;2023-06-10T03:20:41;99614.06;;;17.21;100.00
22261;BME280;11299;43.202;27.920;2023-06-10T03:23:06;98794.31;;;16.56;100.00
22261;BME280;11299;43.202;27.920;2023-06-10T03:25:32;98202.59;;;17.32;100.00
22261;BME280;11299;43.202;27.920;2023-06-10T03:27:57;97127.75;;;17.31;100.00
22261;BME280;11299;43.202;27.920;2023-06-10T03:30:23;95341.97;;;17.31;100.00
22261;BME280;11299;43.202;27.920;2023-06-10T03:32:48;93897.03;;;17.21;100.00
22261;BME280;11299;43.202;27.920;2023-06-10T03:35:14;93549.31;;;17.27;100.00
22261;BME280;11299;43.202;27.920;2023-06-10T03:37:40;91777.59;;;17.35;100.00
22261;BME280;11299;43.202;27.920;2023-06-10T03:40:07;93188.47;;;17.24;100.00
22261;BME280;11299;43.202;27.920;2023-06-10T03:42:34;93912.56;;;17.31;100.00
22261;BME280;11299;43.202;27.920;2023-06-10T03:45:00;97463.44;;;17.17;100.00
22261;BME280;11299;43.202;27.920;2023-06-10T03:47:25;98556.06;;;17.30;100.00
22261;BME280;11299;43.202;27.920;2023-06-10T03:49:51;98203.41;;;17.33;100.00
22261;BME280;11299;43.202;27.920;2023-06-10T03:52:18;95694.47;;;17.28;100.00
22261;BME280;11299;43.202;27.920;2023-06-10T03:54:44;91045.06;;;17.23;100.00
22261;BME280;11299;43.202;27.920;2023-06-10T03:57:09;85088.50;;;17.96;100.00
22261;BME280;11299;43.202;27.920;2023-06-10T03:59:35;74727.88;;;17.66;100.00
22261;BME280;11299;43.202;27.920;2023-06-10T04:02:00;64416.69;;;17.45;100.00
22261;BME280;11299;43.202;27.920;2023-06-10T04:04:26;55287.59;;;18.16;100.00
22261;BME280;11299;43.202;27.920;2023-06-10T04:06:52;49646.94;;;18.30;100.00
22261;BME280;11299;43.202;27.920;2023-06-10T04:09:18;39409.47;;;18.08;100.00
22261;BME280;11299;43.202;27.920;2023-06-10T04:11:43;34118.25;;;17.77;100.00
22261;BME280;11299;43.202;27.920;2023-06-10T04:14:08;23972.66;;;18.30;100.00
22261;BME280;11299;43.202;27.920;2023-06-10T04:16:34;18020.06;;;18.24;100.00
22261;BME280;11299;43.202;27.920;2023-06-10T04:19:00;24324.94;;;18.35;100.00
22261;BME280;11299;43.202;27.920;2023-06-10T04:21:26;15225.59;;;18.31;100.00
22261;BME280;11299;43.202;27.920;2023-06-10T04:23:52;8942.41;;;18.36;100.00
22261;BME280;11299;43.202;27.920;2023-06-10T04:26:17;7550.09;;;18.53;100.00
22261;BME280;11299;43.202;27.920;2023-06-10T04:28:43;14882.28;;;18.54;100.00
22261;BME280;11299;43.202;27.920;2023-06-10T04:31:09;7192.50;;;17.91;100.00
22261;BME280;11299;43.202;27.920;2023-06-10T04:33:35;1974.59;;;18.49;100.00
22261;BME280;11299;43.202;27.920;2023-06-10T04:36:01;8248.00;;;18.55;100.00
22261;BME280;11299;43.202;27.920;2023-06-10T04:38:26;13836.09;;;18.63;100.00
22261;BME280;11299;43.202;27.920;2023-06-10T04:40:52;16284.16;;;18.66;100.00
22261;BME280;11299;43.202;27.920;2023-06-10T04:43:17;13806.75;;;17.45;100.00
22261;BME280;11299;43.202;27.920;2023-06-10T04:45:43;14191.16;;;18.86;100.00
22261;BME280;11299;43.202;27.920;2023-06-10T04:48:10;16641.84;;;18.94;100.00
22261;BME280;11299;43.202;27.920;2023-06-10T04:50:36;11048.63;;;18.99;100.00
22261;BME280;11299;43.202;27.920;2023-06-10T04:53:02;-8460.69;;;19.22;100.00
22261;BME280;11299;43.202;27.920;2023-06-10T04:55:28;-10187.19;;;18.46;100.00
22261;BME280;11299;43.202;27.920;2023-06-10T04:57:53;-9850.03;;;19.21;100.00
22261;BME280;11299;43.202;27.920;2023-06-10T05:00:18;-20761.41;;;18.27;100.00
22261;BME280;11299;43.202;27.920;2023-06-10T05:02:44;-21294.34;;;19.46;100.00
22261;BME280;11299;43.202;27.920;2023-06-10T05:05:10;-21290.59;;;19.34;100.00
22261;BME280;11299;43.202;27.920;2023-06-10T05:07:36;-21276.56;;;18.89;100.00
22261;BME280;11299;43.202;27.920;2023-06-10T05:10:02;-21281.06;;;19.03;100.00
22261;BME280;11299;43.202;27.920;2023-06-10T05:12:28;-21298.56;;;19.59;100.00
22261;BME280;11299;43.202;27.920;2023-06-10T05:14:53;-21278.72;;;18.96;100.00
22261;BME280;11299;43.202;27.920;2023-06-10T05:17:19;-21303.22;;;19.75;100.00
22261;BME280;11299;43.202;27.920;2023-06-10T05:19:44;-21308.06;;;19.90;100.00
22261;BME280;11299;43.202;27.920;2023-06-10T05:22:10;-21291.84;;;19.38;100.00
22261;BME280;11299;43.202;27.920;2023-06-10T05:24:35;-21311.03;;;20.00;100.00
22261;BME280;11299;43.202;27.920;2023-06-10T05:27:01;-21318.22;;;20.23;100.00
22261;BME280;11299;43.202;27.920;2023-06-10T05:29:27;-21314.00;;;20.09;100.00
22261;BME280;11299;43.202;27.920;2023-06-10T05:31:53;-21307.75;;;19.89;100.00
22261;BME280;11299;43.202;27.920;2023-06-10T05:34:18;-21324.28;;;20.42;100.00
22261;BME280;11299;43.202;27.920;2023-06-10T05:36:44;-21329.28;;;20.58;100.00
22261;BME280;11299;43.202;27.920;2023-06-10T05:39:10;-21331.16;;;20.65;100.00
22261;BME280;11299;43.202;27.920;2023-06-10T05:41:35;-21329.91;;;20.60;100.00
22261;BME280;11299;43.202;27.920;2023-06-10T05:44:01;-21320.41;;;20.30;100.00
22261;BME280;11299;43.202;27.920;2023-06-10T05:46:26;-21327.41;;;20.52;100.00
22261;BME280;11299;43.202;27.920;2023-06-10T05:48:52;-21351.09;;;21.29;100.00
22261;BME280;11299;43.202;27.920;2023-06-10T05:51:17;-21359.50;;;21.56;100.00
22261;BME280;11299;43.202;27.920;2023-06-10T05:53:43;-21366.69;;;21.79;100.00
22261;BME280;11299;43.202;27.920;2023-06-10T05:56:08;-21346.75;;;21.15;100.00
22261;BME280;11299;43.202;27.920;2023-06-10T05:58:36;-21365.91;;;21.77;100.00
22261;BME280;11299;43.202;27.920;2023-06-10T06:01:01;-21369.19;;;21.87;100.00
22261;BME280;11299;43.202;27.920;2023-06-10T06:03:27;-21360.44;;;21.59;100.00
22261;BME280;11299;43.202;27.920;2023-06-10T06:05:53;-21366.38;;;21.78;100.00
22261;BME280;11299;43.202;27.920;2023-06-10T06:08:19;-21388.47;;;22.50;100.00
22261;BME280;11299;43.202;27.920;2023-06-10T06:10:45;-21388.78;;;22.51;100.00
22261;BME280;11299;43.202;27.920;2023-06-10T06:13:11;-21367.00;;;21.80;100.00
22261;BME280;11299;43.202;27.920;2023-06-10T06:15:36;-21387.84;;;22.48;100.00
22261;BME280;11299;43.202;27.920;2023-06-10T06:18:02;-21375.72;;;22.08;100.00
22261;BME280;11299;43.202;27.920;2023-06-10T06:20:27;-21376.34;;;22.10;100.00
22261;BME280;11299;43.202;27.920;2023-06-10T06:22:52;-21390.19;;;22.55;100.00
22261;BME280;11299;43.202;27.920;2023-06-10T06:25:18;-21418.81;;;23.48;100.00
22261;BME280;11299;43.202;27.920;2023-06-10T06:27:43;-21399.84;;;22.86;100.00
22261;BME280;11299;43.202;27.920;2023-06-10T06:30:09;-21425.81;;;23.70;100.00
22261;BME280;11299;43.202;27.920;2023-06-10T06:32:35;-21429.53;;;23.82;100.00
22261;BME280;11299;43.202;27.920;2023-06-10T06:35:01;-21367.31;;;21.81;100.00
22261;BME280;11299;43.202;27.920;2023-06-10T06:37:26;-21428.91;;;23.80;100.00
22261;BME280;11299;43.202;27.920;2023-06-10T06:39:52;-21411.97;;;23.25;100.00
22261;BME280;11299;43.202;27.920;2023-06-10T06:42:19;-21427.22;;;23.75;100.00
22261;BME280;11299;43.202;27.920;2023-06-10T06:44:46;-21410.41;;;23.20;100.00
22261;BME280;11299;43.202;27.920;2023-06-10T06:47:11;-21398.13;;;22.81;100.00
22261;BME280;11299;43.202;27.920;2023-06-10T06:49:37;-21420.84;;;23.54;100.00
22261;BME280;11299;43.202;27.920;2023-06-10T06:52:03;-21429.53;;;23.82;100.00
22261;BME280;11299;43.202;27.920;2023-06-10T06:54:31;-21426.91;;;23.74;100.00
22261;BME280;11299;43.202;27.920;2023-06-10T06:56:56;-21448.19;;;24.43;100.00
22261;BME280;11299;43.202;27.920;2023-06-10T06:59:22;-21448.34;;;24.43;100.00
22261;BME280;11299;43.202;27.920;2023-06-10T07:01:48;-21461.41;;;24.85;100.00
22261;BME280;11299;43.202;27.920;2023-06-10T07:04:15;-21452.53;;;24.57;100.00
22261;BME280;11299;43.202;27.920;2023-06-10T07:06:41;-21473.34;;;25.24;100.00
22261;BME280;11299;43.202;27.920;2023-06-10T07:09:07;-21469.63;;;25.12;100.00
22261;BME280;11299;43.202;27.920;2023-06-10T07:11:34;-21482.66;;;25.54;100.00
22261;BME280;11299;43.202;27.920;2023-06-10T07:13:59;-21489.50;;;25.76;100.00
22261;BME280;11299;43.202;27.920;2023-06-10T07:16:25;-21471.97;;;25.19;98.46
22261;BME280;11299;43.202;27.920;2023-06-10T07:18:51;-21497.25;;;26.01;100.00
22261;BME280;11299;43.202;27.920;2023-06-10T07:21:17;-21501.59;;;26.16;99.57
22261;BME280;11299;43.202;27.920;2023-06-10T07:23:43;-21486.41;;;25.66;98.49
22261;BME280;11299;43.202;27.920;2023-06-10T07:26:09;-21511.84;;;26.49;98.62
22261;BME280;11299;43.202;27.920;2023-06-10T07:28:37;-21517.72;;;26.68;92.20
22261;BME280;11299;43.202;27.920;2023-06-10T07:31:03;-21520.22;;;26.76;91.93
22261;BME280;11299;43.202;27.920;2023-06-10T07:33:28;-21518.81;;;26.71;90.38
22261;BME280;11299;43.202;27.920;2023-06-10T07:35:54;-21527.03;;;26.98;86.38
22261;BME280;11299;43.202;27.920;2023-06-10T07:38:19;-21532.47;;;27.16;91.26
22261;BME280;11299;43.202;27.920;2023-06-10T07:40:45;-21540.97;;;27.43;99.98
22261;BME280;11299;43.202;27.920;2023-06-10T07:43:11;-21502.53;;;26.19;100.00
22261;BME280;11299;43.202;27.920;2023-06-10T07:45:36;-21535.09;;;27.24;100.00
22261;BME280;11299;43.202;27.920;2023-06-10T07:48:02;-21552.28;;;27.80;88.52
22261;BME280;11299;43.202;27.920;2023-06-10T07:50:27;-21552.44;;;27.80;90.61
22261;BME280;11299;43.202;27.920;2023-06-10T07:52:54;-21554.91;;;27.88;86.17
22261;BME280;11299;43.202;27.920;2023-06-10T07:55:19;-21542.53;;;27.48;86.14
22261;BME280;11299;43.202;27.920;2023-06-10T07:57:45;-21560.03;;;28.05;83.07
22261;BME280;11299;43.202;27.920;2023-06-10T08:00:10;-21569.47;;;28.36;83.91
22261;BME280;11299;43.202;27.920;2023-06-10T08:02:36;-21570.72;;;28.40;83.60
22261;BME280;11299;43.202;27.920;2023-06-10T08:05:03;-21551.50;;;27.77;81.59
22261;BME280;11299;43.202;27.920;2023-06-10T08:07:28;-21557.41;;;27.97;82.22
22261;BME280;11299;43.202;27.920;2023-06-10T08:09:54;-21576.13;;;28.57;80.54
22261;BME280;11299;43.202;27.920;2023-06-10T08:12:19;-21574.13;;;28.51;78.65
22261;BME280;11299;43.202;27.920;2023-06-10T08:14:45;-21557.25;;;27.96;78.97
22261;BME280;11299;43.202;27.920;2023-06-10T08:17:11;-21582.16;;;28.77;78.55
22261;BME280;11299;43.202;27.920;2023-06-10T08:19:36;-21567.31;;;28.29;76.69
22261;BME280;11299;43.202;27.920;2023-06-10T08:22:02;-21577.84;;;28.63;88.21
22261;BME280;11299;43.202;27.920;2023-06-10T08:24:27;-21601.03;;;29.38;89.76
22261;BME280;11299;43.202;27.920;2023-06-10T08:26:52;-21582.78;;;28.79;80.75
22261;BME280;11299;43.202;27.920;2023-06-10T08:29:18;-21607.53;;;29.59;76.86
22261;BME280;11299;43.202;27.920;2023-06-10T08:31:44;-21608.75;;;29.63;81.19
22261;BME280;11299;43.202;27.920;2023-06-10T08:34:09;-21568.53;;;28.33;83.71
22261;BME280;11299;43.202;27.920;2023-06-10T08:36:35;-21601.50;;;29.40;85.67
22261;BME280;11299;43.202;27.920;2023-06-10T08:39:01;-21582.78;;;28.79;87.75
22261;BME280;11299;43.202;27.920;2023-06-10T08:41:28;-21608.44;;;29.62;81.26
22261;BME280;11299;43.202;27.920;2023-06-10T08:44:17;-21614.03;;;29.81;85.21
22261;BME280;11299;43.202;27.920;2023-06-10T08:46:47;-21609.69;;;29.66;71.09
22261;BME280;11299;43.202;27.920;2023-06-10T08:49:18;-21606.91;;;29.57;68.20
22261;BME280;11299;43.202;27.920;2023-06-10T08:51:54;-21612.47;;;29.76;70.68
22261;BME280;11299;43.202;27.920;2023-06-10T08:54:27;-21625.44;;;30.18;90.23
22261;BME280;11299;43.202;27.920;2023-06-10T08:56:55;-21628.53;;;30.28;91.34
22261;BME280;11299;43.202;27.920;2023-06-10T08:59:21;-21637.50;;;30.57;86.96
22261;BME280;11299;43.202;27.920;2023-06-10T09:01:47;-21623.44;;;30.11;90.10
22261;BME280;11299;43.202;27.920;2023-06-10T09:04:13;-21622.06;;;30.07;80.56
22261;BME280;11299;43.202;27.920;2023-06-10T09:06:40;-21612.31;;;29.75;78.47
22261;BME280;11299;43.202;27.920;2023-06-10T09:09:06;-21615.25;;;29.85;87.84
22261;BME280;11299;43.202;27.920;2023-06-10T09:11:32;-21600.41;;;29.36;97.16
22261;BME280;11299;43.202;27.920;2023-06-10T09:13:59;-21598.25;;;29.29;97.70
22261;BME280;11299;43.202;27.920;2023-06-10T09:16:24;-21572.25;;;28.45;99.17
22261;BME280;11299;43.202;27.920;2023-06-10T09:18:50;-21576.91;;;28.60;97.75
22261;BME280;11299;43.202;27.920;2023-06-10T09:21:22;-21561.41;;;28.10;98.89
22261;BME280;11299;43.202;27.920;2023-06-10T09:23:48;-21553.06;;;27.82;100.00
22261;BME280;11299;43.202;27.920;2023-06-10T09:26:13;-21561.72;;;28.11;100.00
22261;BME280;11299;43.202;27.920;2023-06-10T09:28:38;-21576.28;;;28.58;90.50
22261;BME280;11299;43.202;27.920;2023-06-10T09:31:06;-21587.13;;;28.93;92.33
22261;BME280;11299;43.202;27.920;2023-06-10T09:33:33;-21602.13;;;29.42;92.38
22261;BME280;11299;43.202;27.920;2023-06-10T09:36:01;-21591.75;;;29.08;94.93
22261;BME280;11299;43.202;27.920;2023-06-10T09:38:31;-21584.78;;;28.86;88.96
22261;BME280;11299;43.202;27.920;2023-06-10T09:40:57;-21596.09;;;29.22;87.34
22261;BME280;11299;43.202;27.920;2023-06-10T09:43:23;-21574.41;;;28.52;90.18
22261;BME280;11299;43.202;27.920;2023-06-10T09:46:03;-21606.28;;;29.55;96.01
22261;BME280;11299;43.202;27.920;2023-06-10T09:48:28;-21601.81;;;29.41;100.00
22261;BME280;11299;43.202;27.920;2023-06-10T09:50:53;-21596.25;;;29.23;100.00
22261;BME280;11299;43.202;27.920;2023-06-10T09:53:20;-21578.59;;;28.65;87.88
22261;BME280;11299;43.202;27.920;2023-06-10T09:55:46;-21606.59;;;29.56;91.20
22261;BME280;11299;43.202;27.920;2023-06-10T09:58:11;-21597.31;;;29.26;87.63
22261;BME280;11299;43.202;27.920;2023-06-10T10:00:37;-21604.13;;;29.48;89.91
22261;BME280;11299;43.202;27.920;2023-06-10T10:03:02;-21606.91;;;29.57;88.70
22261;BME280;11299;43.202;27.920;2023-06-10T10:05:28;-21618.34;;;29.95;85.35
22261;BME280;11299;43.202;27.920;2023-06-10T10:07:55;-21630.41;;;30.34;86.54
22261;BME280;11299;43.202;27.920;2023-06-10T10:10:22;-21619.28;;;29.98;84.78
22261;BME280;11299;43.202;27.920;2023-06-10T10:12:48;-21619.88;;;30.00;86.68
22261;BME280;11299;43.202;27.920;2023-06-10T10:15:17;-21619.13;;;29.97;80.18
22261;BME280;11299;43.202;27.920;2023-06-10T10:17:52;-21640.28;;;30.66;87.85
22261;BME280;11299;43.202;27.920;2023-06-10T10:20:23;-21639.03;;;30.62;82.21
22261;BME280;11299;43.202;27.920;2023-06-10T10:22:50;-21635.34;;;30.50;78.63
22261;BME280;11299;43.202;27.920;2023-06-10T10:25:26;-21651.09;;;31.01;74.98
22261;BME280;11299;43.202;27.920;2023-06-10T10:28:12;-21657.88;;;31.23;71.94
22261;BME280;11299;43.202;27.920;2023-06-10T10:30:40;-21674.53;;;31.78;65.97
22261;BME280;11299;43.202;27.920;2023-06-10T10:33:13;-21690.88;;;32.31;53.36
22261;BME280;11299;43.202;27.920;2023-06-10T10:35:43;-21698.28;;;32.55;49.78
22261;BME280;11299;43.202;27.920;2023-06-10T10:38:09;-21681.03;;;31.99;50.68
22261;BME280;11299;43.202;27.920;2023-06-10T10:40:34;-21668.53;;;31.58;56.90
22261;BME280;11299;43.202;27.920;2023-06-10T10:43:01;-21695.22;;;32.45;58.34
22261;BME280;11299;43.202;27.920;2023-06-10T10:45:28;-21687.03;;;32.18;57.14
22261;BME280;11299;43.202;27.920;2023-06-10T10:47:54;-21680.09;;;31.96;57.92
22261;BME280;11299;43.202;27.920;2023-06-10T10:50:23;-21696.13;;;32.48;57.44
22261;BME280;11299;43.202;27.920;2023-06-10T10:52:54;-21648.00;;;30.91;60.35
22261;BME280;11299;43.202;27.920;2023-06-10T10:55:21;-21711.22;;;32.97;58.79
22261;BME280;11299;43.202;27.920;2023-06-10T11:00:27;-21687.50;;;32.20;69.90
22261;BME280;11299;43.202;27.920;2023-06-10T11:03:00;-21670.84;;;31.66;70.95
22261;BME280;11299;43.202;27.920;2023-06-10T11:05:40;-21680.56;;;31.97;71.49
22261;BME280;11299;43.202;27.920;2023-06-10T11:08:10;-21672.06;;;31.70;69.67
22261;BME280;11299;43.202;27.920;2023-06-10T11:10:40;-21658.19;;;31.24;75.56
22261;BME280;11299;43.202;27.920;2023-06-10T11:13:13;-21642.59;;;30.74;75.10
22261;BME280;11299;43.202;27.920;2023-06-10T11:15:43;-21642.13;;;30.72;75.36
22261;BME280;11299;43.202;27.920;2023-06-10T11:28:38;-21615.72;;;29.86;71.89
22261;BME280;11299;43.202;27.920;2023-06-10T11:31:03;-21650.78;;;31.00;70.44
22261;BME280;11299;43.202;27.920;2023-06-10T11:33:29;-21655.09;;;31.14;66.99
22261;BME280;11299;43.202;27.920;2023-06-10T11:35:56;-21687.03;;;32.18;64.17
22261;BME280;11299;43.202;27.920;2023-06-10T11:38:21;-21680.72;;;31.98;59.42
22261;BME280;11299;43.202;27.920;2023-06-10T11:40:50;-21685.03;;;32.12;59.85
22261;BME280;11299;43.202;27.920;2023-06-10T11:43:17;-21705.69;;;32.79;71.02
22261;BME280;11299;43.202;27.920;2023-06-10T11:45:43;-21685.94;;;32.15;70.37
22261;BME280;11299;43.202;27.920;2023-06-10T11:48:09;-21668.22;;;31.57;73.97
22261;BME280;11299;43.202;27.920;2023-06-10T11:50:34;-21663.13;;;31.40;72.00
22261;BME280;11299;43.202;27.920;2023-06-10T11:53:00;-21662.19;;;31.37;70.75
22261;BME280;11299;43.202;27.920;2023-06-10T11:55:48;-21637.19;;;30.56;69.16
22261;BME280;11299;43.202;27.920;2023-06-10T11:58:19;-21614.94;;;29.84;71.73
22261;BME280;11299;43.202;27.920;2023-06-10T12:00:49;-21632.09;;;30.39;73.35
22261;BME280;11299;43.202;27.920;2023-06-10T12:03:15;-21624.53;;;30.15;69.62
22261;BME280;11299;43.202;27.920;2023-06-10T12:05:40;-21632.88;;;30.42;76.92
22261;BME280;11299;43.202;27.920;2023-06-10T12:08:18;-21610.78;;;29.70;73.28
22261;BME280;11299;43.202;27.920;2023-06-10T12:10:44;-21646.47;;;30.86;70.21
22261;BME280;11299;43.202;27.920;2023-06-10T12:13:09;-21640.59;;;30.67;62.44
22261;BME280;11299;43.202;27.920;2023-06-10T12:15:35;-21690.72;;;32.30;62.19
22261;BME280;11299;43.202;27.920;2023-06-10T12:18:01;-21683.34;;;32.06;58.86
22261;BME280;11299;43.202;27.920;2023-06-10T12:20:29;-21686.56;;;32.17;59.51
22261;BME280;11299;43.202;27.920;2023-06-10T12:22:55;-21655.25;;;31.15;59.47
22261;BME280;11299;43.202;27.920;2023-06-10T12:25:26;-21695.81;;;32.47;60.51
22261;BME280;11299;43.202;27.920;2023-06-10T12:27:56;-21709.84;;;32.93;52.79
22261;BME280;11299;43.202;27.920;2023-06-10T12:30:24;-21693.50;;;32.39;49.17
22261;BME280;11299;43.202;27.920;2023-06-10T12:32:50;-21713.22;;;33.04;51.35
22261;BME280;11299;43.202;27.920;2023-06-10T12:35:17;-21705.97;;;32.80;53.26
22261;BME280;11299;43.202;27.920;2023-06-10T12:40:26;-21742.03;;;33.98;47.30
22261;BME280;11299;43.202;27.920;2023-06-10T12:42:52;-21750.31;;;34.25;45.62
22261;BME280;11299;43.202;27.920;2023-06-10T12:45:26;-21757.72;;;34.49;45.99
22261;BME280;11299;43.202;27.920;2023-06-10T12:48:04;-21763.84;;;34.69;46.33
22261;BME280;11299;43.202;27.920;2023-06-10T12:50:31;-21767.53;;;34.81;45.01
22261;BME280;11299;43.202;27.920;2023-06-10T12:52:57;-21762.31;;;34.64;45.82
22261;BME280;11299;43.202;27.920;2023-06-10T12:55:22;-21783.53;;;35.34;44.73